TimeEST,TemperatureF,Dew PointF,Humidity,Sea Level PressureIn,VisibilityMPH,Wind Direction,Wind SpeedMPH,Gust SpeedMPH,PrecipitationIn,Events,Conditions,WindDirDegrees,DateUTC
12:15 AM,16.0,10.2,78,30.54,10.0,Calm,Calm,-,N/A,,Clear,0,2013-01-25 05:15:00
12:35 AM,16.0,9.3,75,30.54,10.0,Calm,Calm,-,N/A,,Clear,0,2013-01-25 05:35:00
12:55 AM,15.4,9.0,76,30.53,10.0,Calm,Calm,-,N/A,,Clear,0,2013-01-25 05:55:00
1:15 AM,15.4,9.7,78,30.53,10.0,Calm,Calm,-,N/A,,Clear,0,2013-01-25 06:15:00
1:35 AM,15.4,10.8,82,30.53,10.0,Calm,Calm,-,N/A,,Clear,0,2013-01-25 06:35:00
1:55 AM,15.4,10.2,80,30.53,10.0,Calm,Calm,-,N/A,,Clear,0,2013-01-25 06:55:00
2:15 AM,15.4,11.1,83,30.53,10.0,Calm,Calm,-,N/A,,Clear,0,2013-01-25 07:15:00
2:35 AM,13.6,9.7,84,30.53,10.0,Calm,Calm,-,N/A,,Clear,0,2013-01-25 07:35:00
2:55 AM,15.4,10.8,82,30.53,10.0,Calm,Calm,-,N/A,,Clear,0,2013-01-25 07:55:00
3:15 AM,15.4,11.1,83,30.53,10.0,Calm,Calm,-,N/A,,Clear,0,2013-01-25 08:15:00
3:35 AM,15.4,11.1,83,30.53,10.0,Calm,Calm,-,N/A,,Clear,0,2013-01-25 08:35:00
3:55 AM,15.4,11.1,83,30.52,10.0,Calm,Calm,-,N/A,,Clear,0,2013-01-25 08:55:00
4:15 AM,15.3,11.1,84,30.53,10.0,Calm,Calm,-,N/A,,Clear,0,2013-01-25 09:15:00
4:35 AM,13.5,10.0,86,30.52,10.0,Calm,Calm,-,N/A,,Clear,0,2013-01-25 09:35:00
4:55 AM,13.6,10.2,86,30.52,10.0,Calm,Calm,-,N/A,,Clear,0,2013-01-25 09:55:00
5:15 AM,13.3,10.0,87,30.53,10.0,Calm,Calm,-,N/A,,Clear,0,2013-01-25 10:15:00
5:35 AM,13.3,10.0,87,30.53,10.0,Calm,Calm,-,N/A,,Clear,0,2013-01-25 10:35:00
5:55 AM,13.1,9.9,87,30.53,10.0,Calm,Calm,-,N/A,,Clear,0,2013-01-25 10:55:00
6:15 AM,12.9,9.5,86,30.53,10.0,Calm,Calm,-,N/A,,Clear,0,2013-01-25 11:15:00
6:35 AM,12.9,9.5,86,30.52,10.0,Calm,Calm,-,N/A,,Clear,0,2013-01-25 11:35:00
6:55 AM,13.1,9.7,86,30.53,10.0,Calm,Calm,-,N/A,,Clear,0,2013-01-25 11:55:00
7:15 AM,13.5,10.4,88,30.53,10.0,Calm,Calm,-,N/A,,Clear,0,2013-01-25 12:15:00
7:35 AM,15.4,12.0,86,30.52,10.0,Calm,Calm,-,N/A,,Clear,0,2013-01-25 12:35:00
7:55 AM,16.0,12.2,85,30.50,10.0,Calm,Calm,-,N/A,,Clear,0,2013-01-25 12:55:00
8:15 AM,18.0,13.1,81,30.51,10.0,Calm,Calm,-,N/A,,Clear,0,2013-01-25 13:15:00
8:35 AM,18.9,13.5,79,30.50,10.0,Calm,Calm,-,N/A,,Clear,0,2013-01-25 13:35:00
8:55 AM,20.7,11.8,69,30.49,10.0,NE,3.5,-,N/A,,Clear,40,2013-01-25 13:55:00
9:15 AM,22.8,11.8,63,30.46,10.0,Calm,Calm,-,N/A,,Clear,0,2013-01-25 14:15:00
9:35 AM,23.2,9.7,56,30.47,10.0,Calm,Calm,-,N/A,,Clear,0,2013-01-25 14:35:00
9:55 AM,25.3,9.9,52,30.47,10.0,Calm,Calm,-,N/A,,Clear,0,2013-01-25 14:55:00
10:15 AM,25.3,9.0,50,30.47,10.0,Calm,Calm,-,N/A,,Clear,0,2013-01-25 15:15:00
10:35 AM,25.3,9.3,51,30.47,10.0,Calm,Calm,-,N/A,,Clear,0,2013-01-25 15:35:00
10:55 AM,25.3,8.6,49,30.45,10.0,Calm,Calm,-,N/A,,Mostly Cloudy,0,2013-01-25 15:55:00
11:15 AM,25.3,8.4,49,30.44,10.0,Calm,Calm,-,N/A,,Overcast,0,2013-01-25 16:15:00
11:35 AM,25.3,8.2,48,30.40,10.0,SE,4.6,-,N/A,,Scattered Clouds,140,2013-01-25 16:35:00
11:55 AM,25.5,9.0,50,30.39,10.0,South,4.6,-,N/A,,Mostly Cloudy,170,2013-01-25 16:55:00
12:15 PM,25.9,9.1,49,30.37,10.0,SSE,3.5,-,N/A,,Overcast,160,2013-01-25 17:15:00
12:35 PM,27.0,9.7,48,30.35,10.0,Calm,Calm,-,N/A,,Overcast,0,2013-01-25 17:35:00
12:55 PM,27.9,10.2,48,30.33,10.0,South,3.5,-,N/A,,Overcast,190,2013-01-25 17:55:00
1:15 PM,27.9,10.8,49,30.32,10.0,Calm,Calm,-,N/A,,Overcast,0,2013-01-25 18:15:00
1:35 PM,27.9,10.9,49,30.31,10.0,South,3.5,-,N/A,,Mostly Cloudy,180,2013-01-25 18:35:00
1:55 PM,25.3,19.4,78,30.30,0.5,SSW,3.5,-,N/A,Snow,Light Snow,210,2013-01-25 18:55:00
2:15 PM,25.3,21.2,84,30.28,1.2,Calm,Calm,-,N/A,Snow,Light Snow,0,2013-01-25 19:15:00
2:35 PM,25.3,21.2,84,30.30,5.0,Calm,Calm,-,N/A,Snow,Light Snow,0,2013-01-25 19:35:00
2:55 PM,25.3,21.9,87,30.28,2.0,Calm,Calm,-,N/A,Snow,Light Snow,0,2013-01-25 19:55:00
3:15 PM,25.3,22.3,88,30.25,0.8,Calm,Calm,-,0.01,Snow,Snow,0,2013-01-25 20:15:00
3:35 PM,25.3,22.6,89,30.24,0.5,Calm,Calm,-,0.01,Snow,Snow,0,2013-01-25 20:35:00
3:55 PM,25.3,22.6,89,30.22,0.2,Calm,Calm,-,0.01,Snow,Snow,0,2013-01-25 20:55:00
4:15 PM,25.3,22.8,90,30.21,0.8,Calm,Calm,-,N/A,Snow,Light Snow,0,2013-01-25 21:15:00
4:35 PM,25.3,22.8,90,30.20,1.0,Calm,Calm,-,0.04,Snow,Light Snow,0,2013-01-25 21:35:00
4:55 PM,25.3,22.8,90,30.20,1.0,North,4.6,-,0.04,Snow,Light Snow,360,2013-01-25 21:55:00
5:15 PM,25.3,22.8,90,30.19,1.2,North,3.5,-,0.03,Snow,Light Snow,360,2013-01-25 22:15:00
5:35 PM,25.3,22.8,90,30.18,3.0,Calm,Calm,-,0.05,Snow,Light Snow,0,2013-01-25 22:35:00
5:55 PM,25.3,22.8,90,30.17,2.5,Calm,Calm,-,0.06,Snow,Light Snow,0,2013-01-25 22:55:00
6:15 PM,25.3,22.8,90,30.17,2.5,Calm,Calm,-,0.03,Snow,Snow,0,2013-01-25 23:15:00
6:35 PM,25.3,22.8,90,30.18,3.0,NNW,3.5,-,0.06,Rain,Freezing Rain,340,2013-01-25 23:35:00
6:55 PM,25.3,23.0,91,30.18,1.8,Calm,Calm,-,0.09,Rain,Freezing Rain,0,2013-01-25 23:55:00
7:15 PM,25.3,23.0,91,30.17,2.5,Calm,Calm,-,0.03,Rain,Freezing Rain,0,2013-01-26 00:15:00
7:35 PM,25.3,23.0,91,30.17,3.0,Calm,Calm,-,0.05,Rain,Freezing Rain,0,2013-01-26 00:35:00
7:55 PM,25.3,23.0,91,30.15,5.0,Calm,Calm,-,0.06,Rain,Freezing Rain,0,2013-01-26 00:55:00
8:15 PM,25.3,23.0,91,30.14,10.0,Calm,Calm,-,N/A,,Overcast,0,2013-01-26 01:15:00
8:35 PM,25.3,23.0,91,30.14,10.0,Calm,Calm,-,0.01,,Overcast,0,2013-01-26 01:35:00
8:55 PM,25.3,23.0,91,30.12,10.0,Calm,Calm,-,0.02,,Overcast,0,2013-01-26 01:55:00
9:15 PM,25.3,23.0,91,30.13,10.0,Calm,Calm,-,0.01,,Mostly Cloudy,0,2013-01-26 02:15:00
9:35 PM,25.3,23.0,91,30.14,10.0,Calm,Calm,-,0.01,,Overcast,0,2013-01-26 02:35:00
9:55 PM,25.3,23.0,91,30.12,10.0,Calm,Calm,-,0.01,,Overcast,0,2013-01-26 02:55:00
10:15 PM,25.3,23.0,91,30.13,10.0,Calm,Calm,-,0.01,,Overcast,0,2013-01-26 03:15:00
10:55 PM,25.3,23.0,91,30.13,10.0,Calm,Calm,-,0.01,,Overcast,0,2013-01-26 03:55:00
11:15 PM,25.3,23.0,91,30.12,10.0,Calm,Calm,-,N/A,,Overcast,0,2013-01-26 04:15:00
11:35 PM,25.3,23.0,91,30.11,10.0,Calm,Calm,-,N/A,,Overcast,0,2013-01-26 04:35:00
11:55 PM,25.3,23.0,91,30.11,7.0,Calm,Calm,-,N/A,,Overcast,0,2013-01-26 04:55:00